Time;durP1;ratioP1;P1;durP2;ratioP2;P2;SDS_P1;SDS_P2;PMS_P1;PMS_P2;Temp;Humidity;BMP_temperature;BMP_pressure;BME280_temperature;BME280_humidity;BME280_pressure;Samples;Min_cycle;Max_cycle;Signal;HPM_P1;HPM_P2
2024/03/19 00:00:55;;;;;;;20.98;12.23;;;9.90;99.90;;;;;;5038028;28;20029;-84
2024/03/19 00:03:21;;;;;;;16.40;11.30;;;9.90;99.90;;;;;;5038116;28;20029;-84
2024/03/19 00:05:49;;;;;;;19.30;11.65;;;9.90;99.90;;;;;;5021813;28;20469;-84
2024/03/19 00:08:15;;;;;;;17.00;11.68;;;9.90;99.90;;;;;;5037603;28;20441;-83
2024/03/19 00:10:41;;;;;;;17.77;12.25;;;9.90;99.90;;;;;;5021191;28;20029;-85
2024/03/19 00:13:06;;;;;;;16.45;11.38;;;9.90;99.90;;;;;;5038310;28;20112;-84
2024/03/19 00:15:32;;;;;;;16.45;11.63;;;9.90;99.90;;;;;;5038169;28;20091;-84
2024/03/19 00:17:58;;;;;;;19.95;12.15;;;9.90;99.90;;;;;;5038106;28;20119;-85
2024/03/19 00:20:24;;;;;;;18.13;12.20;;;9.90;99.90;;;;;;5021813;28;20465;-84
2024/03/19 00:22:49;;;;;;;15.68;11.52;;;9.90;99.90;;;;;;5021609;28;20504;-83
2024/03/19 00:25:15;;;;;;;17.05;12.27;;;9.90;99.90;;;;;;5037821;28;20066;-84
2024/03/19 00:27:41;;;;;;;19.33;11.32;;;9.90;99.90;;;;;;5021468;28;20083;-84
2024/03/19 00:30:10;;;;;;;15.98;11.88;;;9.90;99.90;;;;;;5038358;28;20487;-85
2024/03/19 00:32:37;;;;;;;18.27;11.23;;;9.90;99.90;;;;;;5038895;28;20029;-84
2024/03/19 00:35:08;;;;;;;17.42;12.00;;;9.90;99.90;;;;;;5039164;28;20029;-83
2024/03/19 00:37:34;;;;;;;18.05;11.48;;;9.90;99.90;;;;;;5023053;28;20472;-84
2024/03/19 00:40:00;;;;;;;17.67;11.07;;;9.90;99.90;;;;;;5021234;28;20495;-84
2024/03/19 00:42:26;;;;;;;14.90;10.60;;;9.90;99.90;;;;;;5021233;28;20029;-85
2024/03/19 00:44:51;;;;;;;15.52;11.35;;;9.90;99.90;;;;;;5037488;28;20075;-83
2024/03/19 00:47:17;;;;;;;16.63;11.43;;;10.00;99.90;;;;;;5021207;28;20040;-84
2024/03/19 00:49:43;;;;;;;14.38;10.35;;;10.00;99.90;;;;;;5037603;28;20040;-84
2024/03/19 00:52:08;;;;;;;16.80;11.10;;;10.00;99.90;;;;;;5037721;28;20035;-83
2024/03/19 00:54:34;;;;;;;16.67;11.05;;;10.00;99.90;;;;;;5037652;28;20380;-83
2024/03/19 00:57:00;;;;;;;14.38;10.82;;;10.00;99.90;;;;;;5043534;28;20029;-84
2024/03/19 00:59:25;;;;;;;15.27;10.98;;;10.00;99.90;;;;;;5078562;28;20063;-82
2024/03/19 01:01:51;;;;;;;16.10;10.90;;;10.10;99.90;;;;;;5045265;28;20028;-84
2024/03/19 01:04:17;;;;;;;16.08;11.35;;;10.10;99.90;;;;;;5040534;28;20053;-83
2024/03/19 01:06:42;;;;;;;16.38;11.40;;;10.10;99.90;;;;;;5037400;28;20040;-83
2024/03/19 01:09:15;;;;;;;18.20;11.75;;;10.20;99.90;;;;;;5020917;28;20025;-84
2024/03/19 01:11:43;;;;;;;20.77;11.10;;;10.20;99.90;;;;;;5021456;28;20071;-85
2024/03/19 01:14:10;;;;;;;16.17;11.13;;;10.20;99.90;;;;;;5054698;28;20393;-84
2024/03/19 01:16:36;;;;;;;15.55;11.32;;;10.20;99.90;;;;;;5036448;28;20064;-84
2024/03/19 01:19:02;;;;;;;19.65;11.75;;;10.20;99.90;;;;;;5036749;28;20385;-83
2024/03/19 01:21:30;;;;;;;16.38;11.88;;;10.20;99.90;;;;;;5036903;28;20104;-84
2024/03/19 01:23:57;;;;;;;14.45;10.80;;;10.20;99.90;;;;;;5054325;28;20021;-85
2024/03/19 01:26:25;;;;;;;15.07;11.27;;;10.10;99.90;;;;;;5020358;28;20110;-84
2024/03/19 01:28:51;;;;;;;17.17;11.45;;;10.20;99.90;;;;;;5036981;28;20461;-83
2024/03/19 01:31:17;;;;;;;15.25;11.35;;;10.20;99.90;;;;;;5021189;28;20040;-83
2024/03/19 01:33:43;;;;;;;14.20;10.65;;;10.20;99.90;;;;;;5021810;28;20528;-84
2024/03/19 01:36:09;;;;;;;14.88;11.15;;;10.20;99.90;;;;;;5041447;28;20120;-84
2024/03/19 01:38:35;;;;;;;13.70;10.57;;;10.10;99.90;;;;;;5045939;28;20025;-84
2024/03/19 01:41:01;;;;;;;14.85;10.50;;;10.20;99.90;;;;;;5045204;28;20033;-84
2024/03/19 01:43:26;;;;;;;17.55;11.63;;;10.20;99.90;;;;;;5043104;28;20064;-84
2024/03/19 01:46:14;;;;;;;15.77;10.75;;;10.20;99.90;;;;;;5024616;28;20033;-84
2024/03/19 01:48:39;;;;;;;15.50;11.32;;;10.20;99.90;;;;;;5037080;28;20407;-84
2024/03/19 01:51:05;;;;;;;16.58;11.68;;;10.30;99.90;;;;;;5020303;28;20167;-84
2024/03/19 01:53:31;;;;;;;16.42;11.20;;;10.30;99.90;;;;;;5036459;28;20403;-83
2024/03/19 01:56:00;;;;;;;16.52;12.05;;;10.30;99.90;;;;;;5019911;28;20029;-84
2024/03/19 01:58:27;;;;;;;16.25;12.05;;;10.30;99.90;;;;;;5054382;28;20029;-84
2024/03/19 02:00:53;;;;;;;16.08;11.93;;;10.30;99.90;;;;;;5035418;28;20429;-83
2024/03/19 02:03:19;;;;;;;14.52;11.07;;;10.40;99.90;;;;;;5035833;28;20469;-83
2024/03/19 02:05:46;;;;;;;18.65;11.93;;;10.40;99.90;;;;;;5053800;28;20025;-83
2024/03/19 02:08:12;;;;;;;16.45;11.40;;;10.40;99.90;;;;;;5054791;28;20484;-84
2024/03/19 02:10:38;;;;;;;16.60;12.07;;;10.40;99.90;;;;;;5020006;28;20021;-83
2024/03/19 02:13:04;;;;;;;17.85;12.57;;;10.40;99.90;;;;;;5036676;28;20063;-84
2024/03/19 02:15:30;;;;;;;17.13;12.02;;;10.40;99.90;;;;;;5035878;28;20035;-82
2024/03/19 02:17:56;;;;;;;16.27;11.77;;;10.30;99.90;;;;;;5036049;28;20143;-84
2024/03/19 02:20:22;;;;;;;16.90;12.07;;;10.30;99.90;;;;;;5020139;28;20036;-83
2024/03/19 02:22:49;;;;;;;15.75;11.55;;;10.30;99.90;;;;;;5053918;28;20033;-84
2024/03/19 02:25:18;;;;;;;14.90;11.88;;;10.30;99.90;;;;;;5036794;28;20515;-84
2024/03/19 02:27:45;;;;;;;18.90;12.45;;;10.30;99.90;;;;;;5071063;28;20018;-82
2024/03/19 02:30:11;;;;;;;19.13;12.65;;;10.30;99.90;;;;;;5060023;28;20013;-83
2024/03/19 02:32:37;;;;;;;19.30;13.75;;;10.30;99.90;;;;;;5043782;28;20032;-83
2024/03/19 02:35:03;;;;;;;18.40;12.68;;;10.30;99.90;;;;;;5044034;28;20063;-83
2024/03/19 02:37:28;;;;;;;17.08;12.43;;;10.30;99.90;;;;;;5040088;28;20037;-84
2024/03/19 02:39:54;;;;;;;17.45;11.75;;;10.40;99.90;;;;;;5019591;28;20067;-84
2024/03/19 02:42:19;;;;;;;16.35;11.88;;;10.40;99.90;;;;;;5019483;28;20025;-84
2024/03/19 02:44:46;;;;;;;17.60;11.13;;;10.30;99.90;;;;;;5036604;28;20029;-83
2024/03/19 02:47:11;;;;;;;15.15;11.52;;;10.40;99.90;;;;;;5036947;28;20104;-84
2024/03/19 02:49:37;;;;;;;17.40;11.48;;;10.40;99.90;;;;;;5022001;28;20048;-84
2024/03/19 02:52:03;;;;;;;16.00;11.80;;;10.50;99.90;;;;;;5041325;28;20025;-83
2024/03/19 02:54:29;;;;;;;16.02;11.40;;;10.50;99.90;;;;;;5054055;28;20040;-83
2024/03/19 02:56:54;;;;;;;15.65;11.20;;;10.50;99.90;;;;;;5019217;28;20129;-84
2024/03/19 02:59:20;;;;;;;17.10;11.73;;;10.50;99.90;;;;;;5019048;28;20044;-83
2024/03/19 03:01:46;;;;;;;15.07;10.73;;;10.50;99.90;;;;;;5053430;28;20445;-83
2024/03/19 03:04:12;;;;;;;15.68;10.20;;;10.60;99.90;;;;;;5019266;28;20029;-84
2024/03/19 03:06:38;;;;;;;13.52;9.60;;;10.60;99.90;;;;;;5053547;28;20469;-84
2024/03/19 03:09:06;;;;;;;12.77;9.35;;;10.60;99.90;;;;;;5019022;28;20132;-85
2024/03/19 03:11:32;;;;;;;11.52;8.55;;;10.60;99.90;;;;;;5035923;28;20029;-85
2024/03/19 03:13:57;;;;;;;12.18;8.55;;;10.60;99.90;;;;;;5019265;28;20040;-84
2024/03/19 03:16:23;;;;;;;10.77;8.35;;;10.60;99.90;;;;;;5037991;28;20052;-84
2024/03/19 03:18:49;;;;;;;12.13;8.55;;;10.70;99.90;;;;;;5018676;28;20505;-84
2024/03/19 03:21:15;;;;;;;13.38;9.07;;;10.60;99.90;;;;;;5036833;28;20088;-83
2024/03/19 03:23:41;;;;;;;13.38;8.68;;;10.70;99.90;;;;;;5018773;28;20026;-83
2024/03/19 03:26:08;;;;;;;12.55;9.32;;;10.70;99.90;;;;;;5035400;28;20033;-85
2024/03/19 03:28:34;;;;;;;15.45;9.55;;;10.70;99.90;;;;;;5035596;28;20523;-84
2024/03/19 03:31:00;;;;;;;18.10;10.25;;;10.70;99.90;;;;;;5018775;28;20029;-83
2024/03/19 03:33:26;;;;;;;15.65;10.90;;;10.80;99.90;;;;;;5035113;28;20045;-84
2024/03/19 03:35:52;;;;;;;15.48;10.85;;;10.80;99.90;;;;;;5018950;28;20385;-84
2024/03/19 03:38:19;;;;;;;17.42;11.95;;;10.80;99.90;;;;;;5035498;28;20040;-84
2024/03/19 03:40:46;;;;;;;19.73;13.10;;;10.80;99.90;;;;;;5018954;28;20095;-84
2024/03/19 03:43:13;;;;;;;19.55;13.30;;;10.80;99.90;;;;;;5018697;28;20041;-84
2024/03/19 03:45:39;;;;;;;18.73;13.18;;;10.90;99.90;;;;;;5018713;28;20026;-83
2024/03/19 03:48:06;;;;;;;20.13;13.77;;;10.90;99.90;;;;;;5034326;28;20060;-84
2024/03/19 03:50:32;;;;;;;23.23;14.50;;;10.90;99.90;;;;;;5036082;28;20538;-83
2024/03/19 03:53:01;;;;;;;21.17;13.95;;;10.90;99.90;;;;;;5035482;28;20124;-83
2024/03/19 03:55:26;;;;;;;21.95;14.70;;;11.00;99.90;;;;;;5036724;28;20079;-83
2024/03/19 03:57:52;;;;;;;21.73;15.10;;;11.00;99.90;;;;;;5019626;28;20124;-83
2024/03/19 04:00:18;;;;;;;20.13;14.05;;;11.00;99.90;;;;;;5059199;28;20013;-83
2024/03/19 04:02:48;;;;;;;22.95;15.52;;;11.00;99.90;;;;;;5059511;28;20037;-81
2024/03/19 04:05:14;;;;;;;21.27;15.57;;;11.10;99.90;;;;;;5058784;28;20021;-82
2024/03/19 04:07:41;;;;;;;22.55;16.00;;;11.10;99.90;;;;;;5039642;28;20033;-83
2024/03/19 04:10:12;;;;;;;22.58;16.17;;;11.10;99.90;;;;;;5036900;28;20116;-83
2024/03/19 04:12:38;;;;;;;22.73;15.82;;;11.20;99.90;;;;;;5036376;28;20032;-83
2024/03/19 04:18:26;;;;;;;22.23;14.32;;;11.20;99.90;;;;;;5035530;28;20079;-83
2024/03/19 04:20:51;;;;;;;22.42;13.98;;;11.20;99.90;;;;;;5018625;28;20128;-84
2024/03/19 04:23:17;;;;;;;20.50;13.35;;;11.20;99.90;;;;;;5018714;28;20475;-83
2024/03/19 04:25:42;;;;;;;23.17;15.10;;;11.20;99.90;;;;;;5017991;28;20034;-83
2024/03/19 04:28:08;;;;;;;22.92;14.70;;;11.20;99.90;;;;;;5016801;28;20466;-82
2024/03/19 04:30:34;;;;;;;20.73;15.07;;;11.20;99.90;;;;;;5017485;28;20079;-83
2024/03/19 04:32:59;;;;;;;19.75;14.18;;;11.30;99.90;;;;;;5001412;28;20120;-84
2024/03/19 04:35:25;;;;;;;21.77;14.35;;;11.30;99.90;;;;;;5017562;28;20446;-84
2024/03/19 04:37:51;;;;;;;22.25;14.93;;;11.30;99.90;;;;;;5001504;28;20025;-83
2024/03/19 04:40:16;;;;;;;21.25;14.88;;;11.30;99.90;;;;;;5003422;28;20029;-83
2024/03/19 04:42:42;;;;;;;19.05;14.65;;;11.30;99.90;;;;;;5043194;28;20076;-84
2024/03/19 04:45:09;;;;;;;21.08;15.45;;;11.30;99.90;;;;;;5006937;28;20028;-84
2024/03/19 04:47:34;;;;;;;20.98;15.05;;;11.40;99.90;;;;;;5021557;28;20032;-82
2024/03/19 04:50:00;;;;;;;23.10;15.10;;;11.40;99.90;;;;;;5019354;28;20113;-84
2024/03/19 04:52:26;;;;;;;22.10;15.10;;;11.40;99.90;;;;;;5035383;28;20032;-84
2024/03/19 04:54:52;;;;;;;21.20;15.00;;;11.40;99.90;;;;;;5017574;28;20112;-83
2024/03/19 04:57:18;;;;;;;20.83;14.73;;;11.40;99.90;;;;;;5001232;28;20025;-83
2024/03/19 04:59:44;;;;;;;20.02;14.85;;;11.40;99.90;;;;;;5006016;28;20072;-84
2024/03/19 05:02:10;;;;;;;19.95;14.60;;;11.40;99.90;;;;;;5018202;28;20031;-83
2024/03/19 05:04:36;;;;;;;20.90;14.73;;;11.40;99.90;;;;;;5018184;28;20025;-84
2024/03/19 05:07:03;;;;;;;18.17;13.65;;;11.50;99.90;;;;;;5017763;28;20044;-84
2024/03/19 05:09:28;;;;;;;18.20;14.63;;;11.50;99.90;;;;;;5035793;28;20379;-85
2024/03/19 05:11:54;;;;;;;20.27;14.68;;;11.50;99.90;;;;;;5017767;28;20029;-84
2024/03/19 05:14:20;;;;;;;19.40;13.30;;;11.40;99.90;;;;;;5001317;28;20022;-83
2024/03/19 05:16:46;;;;;;;20.65;13.48;;;11.50;99.90;;;;;;5018023;28;20033;-83
2024/03/19 05:19:14;;;;;;;21.88;14.98;;;11.50;99.90;;;;;;5020304;28;20056;-83
2024/03/19 05:21:40;;;;;;;22.73;14.50;;;11.50;99.90;;;;;;5054525;28;20025;-85
2024/03/19 05:24:06;;;;;;;21.58;14.45;;;11.50;99.90;;;;;;5037175;28;20021;-83
2024/03/19 05:26:32;;;;;;;20.65;15.68;;;11.50;99.90;;;;;;5020535;28;20029;-83
2024/03/19 05:29:01;;;;;;;22.23;15.20;;;11.50;99.90;;;;;;5037337;28;20409;-83
2024/03/19 05:31:30;;;;;;;21.63;13.88;;;11.50;99.90;;;;;;5043770;28;20048;-81
2024/03/19 05:33:57;;;;;;;21.88;15.25;;;11.50;99.90;;;;;;5060979;28;20056;-83
2024/03/19 05:36:24;;;;;;;23.15;14.82;;;11.50;99.90;;;;;;5060059;28;20055;-87
2024/03/19 05:38:50;;;;;;;19.65;14.45;;;11.50;99.90;;;;;;5060523;28;20032;-85
2024/03/19 05:41:15;;;;;;;20.27;15.00;;;11.50;99.90;;;;;;5056245;28;20047;-86
2024/03/19 05:43:48;;;;;;;15.88;12.73;;;11.50;99.90;;;;;;5021467;28;20025;-85
2024/03/19 05:46:15;;;;;;;20.45;14.32;;;11.50;99.90;;;;;;5037801;28;20396;-86
2024/03/19 05:48:40;;;;;;;20.65;14.35;;;11.50;99.90;;;;;;5055325;28;20021;-87
2024/03/19 05:51:07;;;;;;;18.92;12.95;;;11.50;99.90;;;;;;5037339;28;20514;-87
2024/03/19 05:53:37;;;;;;;17.23;12.55;;;11.50;99.90;;;;;;5055023;28;20039;-86
2024/03/19 05:56:04;;;;;;;18.60;12.75;;;11.50;99.90;;;;;;5036970;28;20037;-87
2024/03/19 05:58:30;;;;;;;19.67;13.70;;;11.50;99.90;;;;;;5020484;28;20022;-89
2024/03/19 06:01:00;;;;;;;19.15;14.07;;;11.50;99.90;;;;;;5020603;28;20063;-85
2024/03/19 06:03:27;;;;;;;22.13;14.30;;;11.50;99.90;;;;;;5036959;28;20029;-86
2024/03/19 06:06:08;;;;;;;19.50;13.60;;;11.50;99.90;;;;;;5036717;28;20037;-86
2024/03/19 06:08:34;;;;;;;;;;;11.50;99.90;;;;;;5055088;28;20020;-85
2024/03/19 06:11:00;;;;;;;21.42;13.65;;;11.50;99.90;;;;;;5036827;28;19987;-87
2024/03/19 06:13:25;;;;;;;17.70;13.23;;;11.50;99.90;;;;;;5054153;28;20167;-85
2024/03/19 06:15:51;;;;;;;21.40;13.93;;;11.50;99.90;;;;;;5036151;28;20041;-86
2024/03/19 06:18:17;;;;;;;19.98;14.13;;;11.50;99.90;;;;;;5019406;28;20103;-85
2024/03/19 06:20:45;;;;;;;21.40;13.80;;;11.50;99.90;;;;;;5036267;28;20491;-83
2024/03/19 06:23:11;;;;;;;21.73;13.68;;;11.50;99.90;;;;;;5036508;28;20025;-84
2024/03/19 06:25:38;;;;;;;19.80;14.02;;;11.60;99.90;;;;;;5036524;28;20029;-85
2024/03/19 06:28:04;;;;;;;19.35;13.57;;;11.60;99.90;;;;;;5035633;28;20491;-84
2024/03/19 06:30:31;;;;;;;19.00;13.75;;;11.50;99.90;;;;;;5058337;28;20469;-84
2024/03/19 06:33:00;;;;;;;18.10;13.20;;;11.60;99.90;;;;;;5020399;28;20039;-85
2024/03/19 06:35:26;;;;;;;17.63;13.93;;;11.60;99.90;;;;;;5037112;28;20026;-85
2024/03/19 06:37:52;;;;;;;16.55;13.38;;;11.60;99.90;;;;;;5019935;28;20099;-84
2024/03/19 06:40:18;;;;;;;20.25;13.95;;;11.60;99.90;;;;;;5036194;28;20033;-85
2024/03/19 06:42:44;;;;;;;17.85;14.07;;;11.60;99.90;;;;;;5054332;28;20033;-84
2024/03/19 06:45:11;;;;;;;20.45;13.48;;;11.70;99.90;;;;;;5053411;28;20028;-85
2024/03/19 06:47:37;;;;;;;21.63;14.02;;;11.70;99.90;;;;;;5053472;28;20120;-86
2024/03/19 06:50:13;;;;;;;19.42;14.00;;;11.70;99.90;;;;;;5036848;28;20064;-84
2024/03/19 06:52:39;;;;;;;18.60;14.27;;;11.70;99.90;;;;;;5024764;28;20025;-85
2024/03/19 06:55:05;;;;;;;18.98;12.85;;;11.80;99.90;;;;;;5042923;28;20029;-83
2024/03/19 06:57:32;;;;;;;19.00;13.35;;;11.80;99.90;;;;;;5059899;28;20040;-85
2024/03/19 07:00:01;;;;;;;18.17;13.85;;;11.80;99.90;;;;;;5043760;28;20082;-83
2024/03/19 07:02:29;;;;;;;18.20;13.73;;;11.90;99.90;;;;;;5042939;28;20056;-84
2024/03/19 07:04:55;;;;;;;19.92;13.93;;;11.80;99.90;;;;;;5042785;28;20028;-86
2024/03/19 07:07:22;;;;;;;18.23;13.43;;;11.90;99.90;;;;;;5063747;28;20016;-85
2024/03/19 07:09:52;;;;;;;17.83;13.20;;;11.90;99.90;;;;;;5063895;28;20024;-84
2024/03/19 07:12:21;;;;;;;20.35;13.65;;;11.90;99.90;;;;;;5063808;28;20029;-85
2024/03/19 07:14:47;;;;;;;19.83;13.55;;;11.90;99.90;;;;;;5040029;28;20049;-84
2024/03/19 07:17:13;;;;;;;20.67;13.77;;;12.00;99.90;;;;;;5039574;28;20079;-84
2024/03/19 07:19:38;;;;;;;17.42;13.60;;;12.00;99.90;;;;;;5019647;28;20482;-85
2024/03/19 07:22:09;;;;;;;18.85;13.63;;;12.00;99.90;;;;;;5036333;28;20065;-82
2024/03/19 07:24:34;;;;;;;20.48;13.93;;;12.00;99.90;;;;;;5019649;28;20389;-84
2024/03/19 07:27:00;;;;;;;21.45;13.18;;;12.00;99.90;;;;;;5036032;28;20034;-84
2024/03/19 07:29:25;;;;;;;21.33;13.10;;;12.00;99.90;;;;;;5018803;28;20040;-84
2024/03/19 07:31:54;;;;;;;16.58;12.95;;;12.00;99.90;;;;;;5036801;28;20032;-85
2024/03/19 07:34:19;;;;;;;17.60;12.25;;;12.10;99.90;;;;;;5019355;28;20049;-84
2024/03/19 07:36:45;;;;;;;16.75;11.57;;;12.10;99.90;;;;;;5035434;28;20433;-84
2024/03/19 07:39:13;;;;;;;16.63;11.52;;;12.00;99.90;;;;;;5018517;28;20021;-84
2024/03/19 07:41:39;;;;;;;16.02;11.88;;;12.10;99.90;;;;;;5035489;28;20127;-84
2024/03/19 07:44:05;;;;;;;17.10;11.73;;;12.10;99.90;;;;;;5018840;28;20464;-83
2024/03/19 07:46:31;;;;;;;21.58;11.15;;;12.10;99.90;;;;;;5018674;28;20045;-83
2024/03/19 07:49:05;;;;;;;14.32;11.18;;;12.10;99.90;;;;;;5018850;28;20034;-84
2024/03/19 07:51:30;;;;;;;15.40;10.35;;;12.20;99.90;;;;;;5034772;28;20099;-85
2024/03/19 07:53:56;;;;;;;17.23;11.55;;;12.20;99.90;;;;;;5018598;28;20064;-84
2024/03/19 07:56:22;;;;;;;16.75;11.38;;;12.20;99.90;;;;;;5034714;28;20038;-84
2024/03/19 07:58:47;;;;;;;16.70;11.50;;;12.20;99.90;;;;;;5034844;28;20026;-84
2024/03/19 08:01:16;;;;;;;17.25;10.95;;;12.30;99.90;;;;;;5017735;28;20037;-84
2024/03/19 08:03:42;;;;;;;14.55;10.77;;;12.30;99.90;;;;;;5034461;28;20022;-84
2024/03/19 08:06:11;;;;;;;16.48;10.35;;;12.40;99.90;;;;;;5036319;28;20531;-85
2024/03/19 08:08:36;;;;;;;16.85;11.30;;;12.40;99.90;;;;;;5018804;28;20080;-85
2024/03/19 08:11:04;;;;;;;15.10;10.40;;;12.40;99.90;;;;;;5019257;28;20025;-85
2024/03/19 08:13:30;;;;;;;14.77;9.85;;;12.50;99.90;;;;;;5035885;28;20572;-83
2024/03/19 08:15:55;;;;;;;14.07;10.07;;;12.50;99.90;;;;;;5035895;28;20037;-85
2024/03/19 08:18:21;;;;;;;17.98;10.00;;;12.50;99.90;;;;;;5045890;28;20053;-85
2024/03/19 08:20:47;;;;;;;13.52;9.35;;;12.60;99.90;;;;;;5039418;28;20025;-84
2024/03/19 08:23:15;;;;;;;12.75;8.80;;;12.60;99.90;;;;;;5023045;28;20032;-84
2024/03/19 08:25:43;;;;;;;14.07;8.90;;;12.70;99.90;;;;;;5023968;28;20021;-84
2024/03/19 08:28:09;;;;;;;14.25;9.57;;;12.70;99.90;;;;;;5057618;28;20048;-84
2024/03/19 08:30:35;;;;;;;10.77;8.60;;;12.80;99.90;;;;;;5038033;28;20032;-84
2024/03/19 08:33:01;;;;;;;11.10;7.60;;;12.80;99.90;;;;;;5021269;28;20103;-84
2024/03/19 08:35:26;;;;;;;12.82;8.05;;;12.80;99.90;;;;;;5021721;28;20025;-85
2024/03/19 08:37:52;;;;;;;11.50;7.55;;;12.90;99.90;;;;;;5022318;28;20044;-84
2024/03/19 08:40:19;;;;;;;10.88;7.20;;;12.90;99.90;;;;;;5030149;28;20016;-82
2024/03/19 08:42:44;;;;;;;12.55;7.75;;;12.90;99.90;;;;;;5061793;28;20009;-83
2024/03/19 08:45:10;;;;;;;13.05;7.25;;;13.00;99.90;;;;;;5045029;28;20020;-82
2024/03/19 08:47:38;;;;;;;9.55;6.55;;;13.10;99.90;;;;;;5045031;28;20005;-84
2024/03/19 08:50:08;;;;;;;9.45;6.50;;;13.20;99.90;;;;;;5057441;28;20025;-84
2024/03/19 08:52:35;;;;;;;8.15;5.60;;;13.30;99.90;;;;;;5037604;28;20033;-84
2024/03/19 08:55:04;;;;;;;8.85;5.47;;;13.40;99.90;;;;;;5037449;28;20130;-85
2024/03/19 08:57:30;;;;;;;8.02;5.38;;;13.40;99.90;;;;;;5020709;28;20090;-83
2024/03/19 08:59:58;;;;;;;7.47;4.68;;;13.40;99.90;;;;;;5036951;28;20120;-83
2024/03/19 09:02:24;;;;;;;6.63;3.80;;;13.50;99.90;;;;;;5036696;28;20158;-84
2024/03/19 09:04:50;;;;;;;6.47;3.67;;;13.60;99.90;;;;;;5020189;28;20235;-86
2024/03/19 09:07:17;;;;;;;4.22;3.38;;;13.70;99.90;;;;;;5036914;28;20033;-83
2024/03/19 09:09:47;;;;;;;5.35;3.42;;;13.80;99.90;;;;;;5036536;28;20040;-83
2024/03/19 09:12:13;;;;;;;5.20;3.38;;;13.80;99.90;;;;;;5036925;28;20033;-84
2024/03/19 09:14:38;;;;;;;7.65;2.90;;;13.90;99.90;;;;;;5036174;28;20370;-85
2024/03/19 09:17:04;;;;;;;3.58;2.58;;;13.90;99.90;;;;;;5036797;28;20571;-84
2024/03/19 09:19:40;;;;;;;4.05;2.17;;;14.00;99.90;;;;;;5036357;28;20467;-84
2024/03/19 09:22:06;;;;;;;3.53;1.98;;;14.10;99.90;;;;;;5036305;28;20389;-85
2024/03/19 09:24:31;;;;;;;3.28;2.20;;;14.10;99.90;;;;;;5019894;28;20035;-84
2024/03/19 09:27:02;;;;;;;3.20;2.17;;;14.20;99.90;;;;;;5020098;28;20090;-84
2024/03/19 09:29:30;;;;;;;6.68;1.90;;;14.20;99.90;;;;;;5021319;28;20465;-83
2024/03/19 09:31:56;;;;;;;2.47;2.00;;;14.30;99.90;;;;;;5020401;28;20367;-83
2024/03/19 09:34:23;;;;;;;6.13;1.95;;;14.40;99.90;;;;;;5036305;28;20025;-83
2024/03/19 09:36:48;;;;;;;3.22;2.30;;;14.40;99.90;;;;;;5036740;28;20037;-85
2024/03/19 09:39:15;;;;;;;3.70;2.00;;;14.40;99.90;;;;;;5020511;28;20075;-84
2024/03/19 09:42:14;;;;;;;3.55;1.85;;;14.40;99.90;;;;;;5019876;28;20033;-83
2024/03/19 09:44:44;;;;;;;2.95;1.77;;;14.50;99.90;;;;;;4993918;28;20033;-83
2024/03/19 09:47:18;;;;;;;2.92;1.75;;;14.50;99.90;;;;;;5036506;28;20048;-84
2024/03/19 09:49:45;;;;;;;2.40;1.85;;;14.60;99.90;;;;;;5020268;28;20056;-84
2024/03/19 09:52:13;;;;;;;3.20;1.65;;;14.60;99.90;;;;;;5019955;28;20017;-84
2024/03/19 09:54:39;;;;;;;3.47;1.60;;;14.60;99.90;;;;;;5035973;28;20100;-84
2024/03/19 09:57:14;;;;;;;2.30;1.10;;;14.70;99.90;;;;;;5019410;28;20037;-84
2024/03/19 09:59:40;;;;;;;3.95;1.30;;;14.80;99.90;;;;;;5053870;28;20029;-84
2024/03/19 10:02:24;;;;;;;2.20;1.10;;;14.80;99.90;;;;;;5053668;28;20022;-84
2024/03/19 10:04:50;;;;;;;2.47;1.42;;;14.90;99.90;;;;;;5035808;28;20064;-84
2024/03/19 10:07:17;;;;;;;1.92;1.20;;;15.00;99.90;;;;;;5054036;28;20044;-84
2024/03/19 10:09:45;;;;;;;2.10;1.20;;;15.00;99.90;;;;;;5019299;28;20477;-84
2024/03/19 10:12:11;;;;;;;2.45;0.98;;;15.10;99.90;;;;;;5019777;28;20033;-84
2024/03/19 10:14:36;;;;;;;2.20;1.52;;;15.10;99.90;;;;;;5035996;28;20036;-84
2024/03/19 10:17:02;;;;;;;3.60;1.90;;;15.20;99.90;;;;;;5036204;28;20033;-84
2024/03/19 10:19:28;;;;;;;3.75;1.95;;;15.20;99.90;;;;;;5037415;28;20114;-83
2024/03/19 10:21:54;;;;;;;3.67;2.15;;;15.30;99.90;;;;;;5044282;28;20047;-82
2024/03/19 10:24:19;;;;;;;4.18;2.42;;;15.40;99.90;;;;;;5060521;28;20013;-82
2024/03/19 10:26:46;;;;;;;4.65;2.42;;;15.40;99.90;;;;;;5063623;28;20034;-83
2024/03/19 10:29:13;;;;;;;4.97;2.40;;;15.50;99.90;;;;;;5066933;28;20018;-84
2024/03/19 10:31:41;;;;;;;3.22;2.10;;;15.50;99.90;;;;;;5040055;28;20051;-83
2024/03/19 10:34:18;;;;;;;3.30;2.10;;;15.50;99.90;;;;;;5039692;28;20013;-83
2024/03/19 10:36:50;;;;;;;4.28;2.53;;;15.50;99.90;;;;;;5039591;28;20044;-84
2024/03/19 10:39:17;;;;;;;5.30;3.00;;;15.60;99.90;;;;;;5039636;28;20104;-84
2024/03/19 10:41:43;;;;;;;5.45;2.95;;;15.60;99.90;;;;;;5039442;28;20025;-83
2024/03/19 10:44:17;;;;;;;5.32;2.72;;;15.60;99.90;;;;;;5039510;28;20429;-82
2024/03/19 10:46:44;;;;;;;7.10;2.78;;;15.60;99.90;;;;;;5023064;28;20044;-82
2024/03/19 10:49:18;;;;;;;4.85;2.85;;;15.60;99.90;;;;;;5039231;28;20453;-83
2024/03/19 10:51:46;;;;;;;5.20;3.47;;;15.70;99.90;;;;;;5039240;28;20104;-84
2024/03/19 10:54:16;;;;;;;5.38;2.90;;;15.80;99.90;;;;;;5039330;28;20025;-84
2024/03/19 10:56:42;;;;;;;6.90;3.45;;;15.80;99.90;;;;;;5056603;28;20029;-82
2024/03/19 10:59:12;;;;;;;5.80;2.88;;;15.80;99.90;;;;;;5057009;28;20021;-83
2024/03/19 11:01:49;;;;;;;6.72;3.13;;;15.90;99.90;;;;;;5038747;28;20017;-83
2024/03/19 11:04:15;;;;;;;4.80;2.97;;;16.00;99.90;;;;;;5038863;28;20457;-83
2024/03/19 11:06:42;;;;;;;6.15;2.97;;;16.00;99.90;;;;;;5038593;28;20112;-82
2024/03/19 11:09:20;;;;;;;6.35;3.00;;;16.00;99.90;;;;;;5056573;28;20383;-84
2024/03/19 11:11:50;;;;;;;4.25;2.15;;;16.00;99.90;;;;;;5038672;28;20372;-83
2024/03/19 11:14:21;;;;;;;5.53;2.67;;;16.00;99.90;;;;;;5039190;28;20025;-84
2024/03/19 11:16:47;;;;;;;4.90;2.15;;;16.10;99.90;;;;;;5021825;28;20388;-84
2024/03/19 11:19:22;;;;;;;4.25;2.20;;;16.00;99.90;;;;;;5021954;28;20045;-84
2024/03/19 11:21:49;;;;;;;5.80;2.38;;;16.00;99.90;;;;;;5038783;28;20071;-85
2024/03/19 11:24:31;;;;;;;7.10;2.88;;;16.10;99.90;;;;;;5038612;28;20056;-83
2024/03/19 11:26:58;;;;;;;6.28;2.85;;;16.00;99.90;;;;;;5056504;28;20028;-83
2024/03/19 11:29:29;;;;;;;7.55;3.08;;;16.10;99.90;;;;;;5056015;28;20021;-84
2024/03/19 11:32:02;;;;;;;3.85;2.72;;;16.10;99.90;;;;;;5038496;28;20017;-84
2024/03/19 11:34:31;;;;;;;5.15;2.50;;;16.10;99.90;;;;;;5022195;28;20112;-85
2024/03/19 11:37:00;;;;;;;6.40;2.50;;;16.10;99.90;;;;;;5021814;28;20461;-84
2024/03/19 11:39:27;;;;;;;5.50;2.92;;;16.10;99.90;;;;;;5022399;28;20017;-82
2024/03/19 11:41:54;;;;;;;5.57;2.60;;;16.10;99.90;;;;;;5021651;28;20041;-83
2024/03/19 11:44:21;;;;;;;5.13;2.70;;;16.20;99.90;;;;;;5022136;28;20029;-83
2024/03/19 11:46:49;;;;;;;4.70;2.60;;;16.20;99.90;;;;;;5038739;28;20039;-83
2024/03/19 11:49:29;;;;;;;5.38;2.92;;;16.20;99.90;;;;;;5056852;28;20025;-83
2024/03/19 11:51:59;;;;;;;5.65;2.83;;;16.30;99.90;;;;;;5039181;28;20031;-85
2024/03/19 11:54:30;;;;;;;5.65;2.47;;;16.40;99.90;;;;;;5044248;28;20020;-84
2024/03/19 11:56:56;;;;;;;;;;;16.40;99.90;;;;;;5043607;28;20044;-83
2024/03/19 11:59:26;;;;;;;6.47;2.40;;;16.40;99.90;;;;;;5057984;28;19905;-84
2024/03/19 12:01:54;;;;;;;4.07;1.87;;;16.50;99.90;;;;;;5062802;28;20107;-83
2024/03/19 12:04:20;;;;;;;5.43;2.17;;;16.50;99.90;;;;;;5063077;28;20017;-83
2024/03/19 12:06:47;;;;;;;4.68;1.90;;;16.60;99.90;;;;;;5079671;28;20082;-83
2024/03/19 12:09:13;;;;;;;3.90;1.50;;;16.70;99.90;;;;;;5062554;28;20029;-83
2024/03/19 12:11:39;;;;;;;3.97;1.73;;;16.80;99.90;;;;;;5044749;28;20026;-84
2024/03/19 12:14:13;;;;;;;6.07;1.77;;;16.80;99.90;;;;;;5038380;28;20083;-84
2024/03/19 12:16:40;;;;;;;4.68;1.80;;;16.90;99.90;;;;;;5055613;28;20071;-83
2024/03/19 12:19:07;;;;;;;4.57;1.73;;;16.90;99.90;;;;;;5055865;28;20081;-83
2024/03/19 12:21:42;;;;;;;5.22;1.80;;;16.90;99.90;;;;;;5021290;28;20033;-83
2024/03/19 12:24:15;;;;;;;5.22;1.98;;;17.00;99.90;;;;;;5037469;28;20384;-84
2024/03/19 12:26:50;;;;;;;4.32;2.00;;;17.00;99.90;;;;;;5021415;28;20049;-83
2024/03/19 12:29:18;;;;;;;5.60;2.10;;;17.00;99.90;;;;;;5037508;28;20031;-84
2024/03/19 12:32:04;;;;;;;6.18;2.25;;;16.90;99.90;;;;;;5037709;28;20498;-83
2024/03/19 12:37:10;;;;;;;5.95;2.30;;;17.00;99.90;;;;;;5055420;28;20150;-84
2024/03/19 12:39:36;;;;;;;4.25;1.92;;;17.00;99.90;;;;;;5037165;28;20029;-84
2024/03/19 12:42:07;;;;;;;5.57;2.30;;;17.00;99.90;;;;;;5004258;28;20392;-84